sensor_id;sensor_type;location;lat;lon;timestamp;P1;durP1;ratioP1;P2;durP2;ratioP2
7773;SDS011;3931;42.260;23.116;2023-03-14T00:01:41;15.57;;;9.07;;
7773;SDS011;3931;42.260;23.116;2023-03-14T00:04:09;21.60;;;8.20;;
7773;SDS011;3931;42.260;23.116;2023-03-14T00:06:35;29.03;;;11.23;;
7773;SDS011;3931;42.260;23.116;2023-03-14T00:09:01;21.73;;;10.67;;
7773;SDS011;3931;42.260;23.116;2023-03-14T00:11:27;28.13;;;11.47;;
7773;SDS011;3931;42.260;23.116;2023-03-14T00:13:53;36.03;;;14.30;;
7773;SDS011;3931;42.260;23.116;2023-03-14T00:16:19;32.57;;;14.83;;
7773;SDS011;3931;42.260;23.116;2023-03-14T00:18:46;36.30;;;14.87;;
7773;SDS011;3931;42.260;23.116;2023-03-14T00:21:12;34.03;;;15.13;;
7773;SDS011;3931;42.260;23.116;2023-03-14T00:23:39;27.80;;;10.60;;
7773;SDS011;3931;42.260;23.116;2023-03-14T00:26:07;26.27;;;12.63;;
7773;SDS011;3931;42.260;23.116;2023-03-14T00:28:34;25.83;;;13.40;;
7773;SDS011;3931;42.260;23.116;2023-03-14T00:31:02;16.87;;;8.93;;
7773;SDS011;3931;42.260;23.116;2023-03-14T00:33:28;19.47;;;9.00;;
7773;SDS011;3931;42.260;23.116;2023-03-14T00:35:55;17.33;;;9.30;;
7773;SDS011;3931;42.260;23.116;2023-03-14T00:38:23;19.90;;;10.73;;
7773;SDS011;3931;42.260;23.116;2023-03-14T00:40:50;20.67;;;9.67;;
7773;SDS011;3931;42.260;23.116;2023-03-14T00:43:17;20.57;;;9.63;;
7773;SDS011;3931;42.260;23.116;2023-03-14T00:45:43;17.70;;;9.20;;
7773;SDS011;3931;42.260;23.116;2023-03-14T00:48:09;13.37;;;7.70;;
7773;SDS011;3931;42.260;23.116;2023-03-14T00:50:35;13.80;;;7.60;;
7773;SDS011;3931;42.260;23.116;2023-03-14T00:53:02;14.60;;;8.30;;
7773;SDS011;3931;42.260;23.116;2023-03-14T00:55:28;22.10;;;10.47;;
7773;SDS011;3931;42.260;23.116;2023-03-14T00:57:54;25.20;;;10.53;;
7773;SDS011;3931;42.260;23.116;2023-03-14T01:00:20;26.20;;;12.20;;
7773;SDS011;3931;42.260;23.116;2023-03-14T01:02:46;29.90;;;12.60;;
7773;SDS011;3931;42.260;23.116;2023-03-14T01:05:12;22.03;;;10.53;;
7773;SDS011;3931;42.260;23.116;2023-03-14T01:07:38;18.33;;;7.47;;
7773;SDS011;3931;42.260;23.116;2023-03-14T01:10:06;16.13;;;6.23;;
7773;SDS011;3931;42.260;23.116;2023-03-14T01:12:33;15.17;;;7.30;;
7773;SDS011;3931;42.260;23.116;2023-03-14T01:14:59;16.43;;;8.13;;
7773;SDS011;3931;42.260;23.116;2023-03-14T01:17:25;15.17;;;7.80;;
7773;SDS011;3931;42.260;23.116;2023-03-14T01:19:51;14.77;;;7.10;;
7773;SDS011;3931;42.260;23.116;2023-03-14T01:22:18;13.73;;;6.53;;
7773;SDS011;3931;42.260;23.116;2023-03-14T01:24:44;12.40;;;5.80;;
7773;SDS011;3931;42.260;23.116;2023-03-14T01:27:10;11.63;;;5.50;;
7773;SDS011;3931;42.260;23.116;2023-03-14T01:29:36;10.87;;;6.67;;
7773;SDS011;3931;42.260;23.116;2023-03-14T01:32:02;13.20;;;5.80;;
7773;SDS011;3931;42.260;23.116;2023-03-14T01:34:29;15.27;;;6.83;;
7773;SDS011;3931;42.260;23.116;2023-03-14T01:36:55;12.40;;;7.10;;
7773;SDS011;3931;42.260;23.116;2023-03-14T01:39:21;10.50;;;6.33;;
7773;SDS011;3931;42.260;23.116;2023-03-14T01:41:47;12.83;;;6.83;;
7773;SDS011;3931;42.260;23.116;2023-03-14T01:44:13;25.20;;;7.90;;
7773;SDS011;3931;42.260;23.116;2023-03-14T01:46:40;15.20;;;7.37;;
7773;SDS011;3931;42.260;23.116;2023-03-14T01:49:15;14.23;;;7.97;;
7773;SDS011;3931;42.260;23.116;2023-03-14T01:51:46;14.80;;;7.77;;
7773;SDS011;3931;42.260;23.116;2023-03-14T01:54:18;11.83;;;5.87;;
7773;SDS011;3931;42.260;23.116;2023-03-14T01:56:48;17.93;;;6.77;;
7773;SDS011;3931;42.260;23.116;2023-03-14T01:59:19;16.20;;;7.50;;
7773;SDS011;3931;42.260;23.116;2023-03-14T02:01:46;15.20;;;7.53;;
7773;SDS011;3931;42.260;23.116;2023-03-14T02:04:15;16.70;;;7.70;;
7773;SDS011;3931;42.260;23.116;2023-03-14T02:06:46;15.70;;;7.43;;
7773;SDS011;3931;42.260;23.116;2023-03-14T02:09:15;14.23;;;6.73;;
7773;SDS011;3931;42.260;23.116;2023-03-14T02:11:41;11.00;;;7.10;;
7773;SDS011;3931;42.260;23.116;2023-03-14T02:14:10;9.03;;;5.70;;
7773;SDS011;3931;42.260;23.116;2023-03-14T02:16:47;13.80;;;6.90;;
7773;SDS011;3931;42.260;23.116;2023-03-14T02:19:14;14.67;;;7.27;;
7773;SDS011;3931;42.260;23.116;2023-03-14T02:21:47;15.03;;;7.20;;
7773;SDS011;3931;42.260;23.116;2023-03-14T02:24:20;17.30;;;9.23;;
7773;SDS011;3931;42.260;23.116;2023-03-14T02:27:06;11.83;;;6.90;;
7773;SDS011;3931;42.260;23.116;2023-03-14T02:29:35;15.37;;;7.57;;
7773;SDS011;3931;42.260;23.116;2023-03-14T02:32:05;20.27;;;8.80;;
7773;SDS011;3931;42.260;23.116;2023-03-14T02:34:31;21.43;;;9.77;;
7773;SDS011;3931;42.260;23.116;2023-03-14T02:37:00;20.30;;;7.67;;
7773;SDS011;3931;42.260;23.116;2023-03-14T02:39:27;12.20;;;7.10;;
7773;SDS011;3931;42.260;23.116;2023-03-14T02:41:58;27.50;;;6.03;;
7773;SDS011;3931;42.260;23.116;2023-03-14T02:44:25;9.83;;;5.30;;
7773;SDS011;3931;42.260;23.116;2023-03-14T02:46:51;21.40;;;5.70;;
7773;SDS011;3931;42.260;23.116;2023-03-14T02:49:17;12.97;;;6.67;;
7773;SDS011;3931;42.260;23.116;2023-03-14T02:51:44;11.03;;;7.00;;
7773;SDS011;3931;42.260;23.116;2023-03-14T02:54:11;14.53;;;6.33;;
7773;SDS011;3931;42.260;23.116;2023-03-14T02:56:38;11.00;;;6.27;;
7773;SDS011;3931;42.260;23.116;2023-03-14T02:59:04;15.40;;;7.07;;
7773;SDS011;3931;42.260;23.116;2023-03-14T03:01:31;17.90;;;7.03;;
7773;SDS011;3931;42.260;23.116;2023-03-14T03:03:58;19.30;;;8.70;;
7773;SDS011;3931;42.260;23.116;2023-03-14T03:06:24;35.33;;;11.87;;
7773;SDS011;3931;42.260;23.116;2023-03-14T03:08:50;22.20;;;9.40;;
7773;SDS011;3931;42.260;23.116;2023-03-14T03:11:16;12.03;;;6.30;;
7773;SDS011;3931;42.260;23.116;2023-03-14T03:13:42;15.10;;;7.83;;
7773;SDS011;3931;42.260;23.116;2023-03-14T03:16:08;21.40;;;7.90;;
7773;SDS011;3931;42.260;23.116;2023-03-14T03:18:35;14.77;;;7.30;;
7773;SDS011;3931;42.260;23.116;2023-03-14T03:21:01;9.70;;;6.07;;
7773;SDS011;3931;42.260;23.116;2023-03-14T03:23:29;9.30;;;5.13;;
7773;SDS011;3931;42.260;23.116;2023-03-14T03:25:56;11.73;;;6.67;;
7773;SDS011;3931;42.260;23.116;2023-03-14T03:28:22;21.23;;;8.27;;
7773;SDS011;3931;42.260;23.116;2023-03-14T03:30:48;22.80;;;8.50;;
7773;SDS011;3931;42.260;23.116;2023-03-14T03:33:14;23.70;;;9.60;;
7773;SDS011;3931;42.260;23.116;2023-03-14T03:35:44;25.93;;;11.40;;
7773;SDS011;3931;42.260;23.116;2023-03-14T03:38:11;20.53;;;9.90;;
7773;SDS011;3931;42.260;23.116;2023-03-14T03:40:38;30.07;;;9.60;;
7773;SDS011;3931;42.260;23.116;2023-03-14T03:43:04;20.27;;;9.23;;
7773;SDS011;3931;42.260;23.116;2023-03-14T03:45:30;12.67;;;8.00;;
7773;SDS011;3931;42.260;23.116;2023-03-14T03:47:56;40.40;;;23.00;;
7773;SDS011;3931;42.260;23.116;2023-03-14T03:50:22;47.10;;;21.53;;
7773;SDS011;3931;42.260;23.116;2023-03-14T03:52:49;48.47;;;21.97;;
7773;SDS011;3931;42.260;23.116;2023-03-14T03:55:15;38.77;;;18.57;;
7773;SDS011;3931;42.260;23.116;2023-03-14T03:57:41;27.33;;;14.40;;
7773;SDS011;3931;42.260;23.116;2023-03-14T04:00:08;20.50;;;11.10;;
7773;SDS011;3931;42.260;23.116;2023-03-14T04:02:37;18.30;;;10.30;;
7773;SDS011;3931;42.260;23.116;2023-03-14T04:05:03;18.70;;;8.63;;
7773;SDS011;3931;42.260;23.116;2023-03-14T04:07:31;14.50;;;9.83;;
7773;SDS011;3931;42.260;23.116;2023-03-14T04:09:58;16.73;;;6.97;;
7773;SDS011;3931;42.260;23.116;2023-03-14T04:12:24;25.47;;;19.13;;
7773;SDS011;3931;42.260;23.116;2023-03-14T04:14:50;13.47;;;7.83;;
7773;SDS011;3931;42.260;23.116;2023-03-14T04:17:16;14.60;;;6.63;;
7773;SDS011;3931;42.260;23.116;2023-03-14T04:19:42;16.97;;;6.90;;
7773;SDS011;3931;42.260;23.116;2023-03-14T04:22:08;16.10;;;7.30;;
7773;SDS011;3931;42.260;23.116;2023-03-14T04:24:34;15.43;;;8.50;;
7773;SDS011;3931;42.260;23.116;2023-03-14T04:27:01;22.20;;;8.07;;
7773;SDS011;3931;42.260;23.116;2023-03-14T04:29:27;19.20;;;8.70;;
7773;SDS011;3931;42.260;23.116;2023-03-14T04:31:53;21.30;;;9.77;;
7773;SDS011;3931;42.260;23.116;2023-03-14T04:34:19;14.60;;;8.70;;
7773;SDS011;3931;42.260;23.116;2023-03-14T04:36:45;22.80;;;9.87;;
7773;SDS011;3931;42.260;23.116;2023-03-14T04:39:11;22.30;;;9.80;;
7773;SDS011;3931;42.260;23.116;2023-03-14T04:41:37;39.73;;;10.53;;
7773;SDS011;3931;42.260;23.116;2023-03-14T04:44:09;15.83;;;8.27;;
7773;SDS011;3931;42.260;23.116;2023-03-14T04:46:35;17.60;;;8.80;;
7773;SDS011;3931;42.260;23.116;2023-03-14T04:49:02;12.67;;;8.17;;
7773;SDS011;3931;42.260;23.116;2023-03-14T04:51:28;11.83;;;7.30;;
7773;SDS011;3931;42.260;23.116;2023-03-14T04:53:54;16.90;;;9.77;;
7773;SDS011;3931;42.260;23.116;2023-03-14T04:56:20;21.37;;;8.67;;
7773;SDS011;3931;42.260;23.116;2023-03-14T04:58:46;21.50;;;9.27;;
7773;SDS011;3931;42.260;23.116;2023-03-14T05:01:13;23.83;;;10.50;;
7773;SDS011;3931;42.260;23.116;2023-03-14T05:03:39;21.70;;;9.23;;
7773;SDS011;3931;42.260;23.116;2023-03-14T05:06:05;17.07;;;7.50;;
7773;SDS011;3931;42.260;23.116;2023-03-14T05:08:31;14.47;;;7.50;;
7773;SDS011;3931;42.260;23.116;2023-03-14T05:10:57;16.63;;;7.90;;
7773;SDS011;3931;42.260;23.116;2023-03-14T05:13:24;31.13;;;9.27;;
7773;SDS011;3931;42.260;23.116;2023-03-14T05:15:50;32.43;;;9.83;;
7773;SDS011;3931;42.260;23.116;2023-03-14T05:18:17;26.23;;;8.97;;
7773;SDS011;3931;42.260;23.116;2023-03-14T05:20:43;28.30;;;9.27;;
7773;SDS011;3931;42.260;23.116;2023-03-14T05:23:09;21.40;;;8.70;;
7773;SDS011;3931;42.260;23.116;2023-03-14T05:25:35;28.27;;;13.63;;
7773;SDS011;3931;42.260;23.116;2023-03-14T05:28:01;62.50;;;21.70;;
7773;SDS011;3931;42.260;23.116;2023-03-14T05:30:27;104.20;;;30.87;;
7773;SDS011;3931;42.260;23.116;2023-03-14T05:32:53;54.30;;;23.63;;
7773;SDS011;3931;42.260;23.116;2023-03-14T05:35:20;80.40;;;23.07;;
7773;SDS011;3931;42.260;23.116;2023-03-14T05:37:46;57.20;;;18.17;;
7773;SDS011;3931;42.260;23.116;2023-03-14T05:40:12;135.77;;;20.97;;
7773;SDS011;3931;42.260;23.116;2023-03-14T05:42:38;63.17;;;19.63;;
7773;SDS011;3931;42.260;23.116;2023-03-14T05:45:04;112.57;;;22.77;;
7773;SDS011;3931;42.260;23.116;2023-03-14T05:47:31;93.90;;;22.50;;
7773;SDS011;3931;42.260;23.116;2023-03-14T05:49:57;71.73;;;32.90;;
7773;SDS011;3931;42.260;23.116;2023-03-14T05:52:24;50.40;;;18.50;;
7773;SDS011;3931;42.260;23.116;2023-03-14T05:54:50;52.90;;;14.23;;
7773;SDS011;3931;42.260;23.116;2023-03-14T05:57:16;48.87;;;13.57;;
7773;SDS011;3931;42.260;23.116;2023-03-14T05:59:42;14.00;;;9.17;;
7773;SDS011;3931;42.260;23.116;2023-03-14T06:02:08;33.37;;;11.30;;
7773;SDS011;3931;42.260;23.116;2023-03-14T06:04:34;71.60;;;13.90;;
7773;SDS011;3931;42.260;23.116;2023-03-14T06:07:00;38.33;;;11.90;;
7773;SDS011;3931;42.260;23.116;2023-03-14T06:09:27;43.13;;;9.60;;
7773;SDS011;3931;42.260;23.116;2023-03-14T06:11:53;22.40;;;10.90;;
7773;SDS011;3931;42.260;23.116;2023-03-14T06:14:19;74.83;;;13.30;;
7773;SDS011;3931;42.260;23.116;2023-03-14T06:16:45;29.97;;;13.20;;
7773;SDS011;3931;42.260;23.116;2023-03-14T06:19:13;44.63;;;14.77;;
7773;SDS011;3931;42.260;23.116;2023-03-14T06:21:39;88.70;;;13.10;;
7773;SDS011;3931;42.260;23.116;2023-03-14T06:24:05;37.57;;;12.50;;
7773;SDS011;3931;42.260;23.116;2023-03-14T06:26:32;40.83;;;15.50;;
7773;SDS011;3931;42.260;23.116;2023-03-14T06:28:58;41.13;;;19.93;;
7773;SDS011;3931;42.260;23.116;2023-03-14T06:31:28;69.07;;;28.57;;
7773;SDS011;3931;42.260;23.116;2023-03-14T06:33:54;47.50;;;18.20;;
7773;SDS011;3931;42.260;23.116;2023-03-14T06:36:20;113.27;;;23.00;;
7773;SDS011;3931;42.260;23.116;2023-03-14T06:38:46;73.43;;;22.30;;
7773;SDS011;3931;42.260;23.116;2023-03-14T06:41:12;143.87;;;24.40;;
7773;SDS011;3931;42.260;23.116;2023-03-14T06:43:39;47.00;;;16.83;;
7773;SDS011;3931;42.260;23.116;2023-03-14T06:46:05;66.33;;;17.17;;
7773;SDS011;3931;42.260;23.116;2023-03-14T06:48:31;34.63;;;13.67;;
7773;SDS011;3931;42.260;23.116;2023-03-14T06:50:57;63.80;;;18.40;;
7773;SDS011;3931;42.260;23.116;2023-03-14T06:53:23;50.87;;;17.50;;
7773;SDS011;3931;42.260;23.116;2023-03-14T06:55:49;87.17;;;15.73;;
7773;SDS011;3931;42.260;23.116;2023-03-14T06:58:15;45.57;;;14.00;;
7773;SDS011;3931;42.260;23.116;2023-03-14T07:00:42;26.70;;;13.97;;
7773;SDS011;3931;42.260;23.116;2023-03-14T07:03:08;43.93;;;13.03;;
7773;SDS011;3931;42.260;23.116;2023-03-14T07:05:35;27.63;;;12.27;;
7773;SDS011;3931;42.260;23.116;2023-03-14T07:08:01;20.67;;;10.30;;
7773;SDS011;3931;42.260;23.116;2023-03-14T07:10:27;19.10;;;9.97;;
7773;SDS011;3931;42.260;23.116;2023-03-14T07:12:53;27.70;;;12.00;;
7773;SDS011;3931;42.260;23.116;2023-03-14T07:15:19;22.80;;;10.33;;
7773;SDS011;3931;42.260;23.116;2023-03-14T07:17:46;25.13;;;10.80;;
7773;SDS011;3931;42.260;23.116;2023-03-14T07:20:13;51.43;;;15.20;;
7773;SDS011;3931;42.260;23.116;2023-03-14T07:22:39;32.90;;;15.33;;
7773;SDS011;3931;42.260;23.116;2023-03-14T07:25:05;26.70;;;9.40;;
7773;SDS011;3931;42.260;23.116;2023-03-14T07:27:34;35.40;;;9.73;;
7773;SDS011;3931;42.260;23.116;2023-03-14T07:30:00;80.33;;;12.60;;
7773;SDS011;3931;42.260;23.116;2023-03-14T07:32:26;19.83;;;5.83;;
7773;SDS011;3931;42.260;23.116;2023-03-14T07:34:53;22.40;;;4.10;;
7773;SDS011;3931;42.260;23.116;2023-03-14T07:37:19;7.60;;;5.00;;
7773;SDS011;3931;42.260;23.116;2023-03-14T07:39:45;21.10;;;7.07;;
7773;SDS011;3931;42.260;23.116;2023-03-14T07:42:11;21.70;;;7.50;;
7773;SDS011;3931;42.260;23.116;2023-03-14T07:44:37;31.77;;;10.53;;
7773;SDS011;3931;42.260;23.116;2023-03-14T07:47:03;25.60;;;9.10;;
7773;SDS011;3931;42.260;23.116;2023-03-14T07:49:29;31.60;;;9.03;;
7773;SDS011;3931;42.260;23.116;2023-03-14T07:51:56;21.93;;;8.07;;
7773;SDS011;3931;42.260;23.116;2023-03-14T07:54:23;89.20;;;10.10;;
7773;SDS011;3931;42.260;23.116;2023-03-14T07:56:49;19.03;;;8.67;;
7773;SDS011;3931;42.260;23.116;2023-03-14T07:59:16;18.87;;;6.90;;
7773;SDS011;3931;42.260;23.116;2023-03-14T08:01:42;38.80;;;6.60;;
7773;SDS011;3931;42.260;23.116;2023-03-14T08:04:08;10.33;;;6.13;;
7773;SDS011;3931;42.260;23.116;2023-03-14T08:06:35;17.03;;;6.23;;
7773;SDS011;3931;42.260;23.116;2023-03-14T08:09:02;29.40;;;6.17;;
7773;SDS011;3931;42.260;23.116;2023-03-14T08:11:28;34.10;;;6.17;;
7773;SDS011;3931;42.260;23.116;2023-03-14T08:13:54;18.00;;;6.20;;
7773;SDS011;3931;42.260;23.116;2023-03-14T08:16:20;57.90;;;9.27;;
7773;SDS011;3931;42.260;23.116;2023-03-14T08:18:47;13.30;;;5.50;;
7773;SDS011;3931;42.260;23.116;2023-03-14T08:21:13;33.17;;;12.97;;
7773;SDS011;3931;42.260;23.116;2023-03-14T08:23:40;52.97;;;7.90;;
7773;SDS011;3931;42.260;23.116;2023-03-14T08:26:06;81.60;;;8.40;;
7773;SDS011;3931;42.260;23.116;2023-03-14T08:28:33;30.23;;;6.80;;
7773;SDS011;3931;42.260;23.116;2023-03-14T08:30:59;11.60;;;6.20;;
7773;SDS011;3931;42.260;23.116;2023-03-14T08:33:26;13.10;;;6.00;;
7773;SDS011;3931;42.260;23.116;2023-03-14T08:35:54;16.33;;;5.53;;
7773;SDS011;3931;42.260;23.116;2023-03-14T08:38:21;13.67;;;6.00;;
7773;SDS011;3931;42.260;23.116;2023-03-14T08:40:48;10.53;;;5.60;;
7773;SDS011;3931;42.260;23.116;2023-03-14T08:43:15;15.33;;;5.60;;
7773;SDS011;3931;42.260;23.116;2023-03-14T08:45:41;17.07;;;5.40;;
7773;SDS011;3931;42.260;23.116;2023-03-14T08:48:07;14.47;;;4.80;;
7773;SDS011;3931;42.260;23.116;2023-03-14T08:50:34;10.27;;;4.40;;
7773;SDS011;3931;42.260;23.116;2023-03-14T08:53:00;19.90;;;4.60;;
7773;SDS011;3931;42.260;23.116;2023-03-14T08:55:26;16.20;;;5.10;;
7773;SDS011;3931;42.260;23.116;2023-03-14T08:57:53;82.33;;;8.73;;
7773;SDS011;3931;42.260;23.116;2023-03-14T09:00:20;30.30;;;4.60;;
7773;SDS011;3931;42.260;23.116;2023-03-14T09:02:46;14.10;;;5.10;;
7773;SDS011;3931;42.260;23.116;2023-03-14T09:05:13;25.37;;;4.70;;
7773;SDS011;3931;42.260;23.116;2023-03-14T09:07:39;65.63;;;5.33;;
7773;SDS011;3931;42.260;23.116;2023-03-14T09:10:06;12.77;;;4.70;;
7773;SDS011;3931;42.260;23.116;2023-03-14T09:12:34;8.70;;;3.70;;
7773;SDS011;3931;42.260;23.116;2023-03-14T09:15:00;19.33;;;3.43;;
7773;SDS011;3931;42.260;23.116;2023-03-14T09:17:27;21.57;;;3.57;;
7773;SDS011;3931;42.260;23.116;2023-03-14T09:19:53;7.90;;;3.50;;
7773;SDS011;3931;42.260;23.116;2023-03-14T09:22:19;25.73;;;4.30;;
7773;SDS011;3931;42.260;23.116;2023-03-14T09:24:46;7.20;;;4.03;;
7773;SDS011;3931;42.260;23.116;2023-03-14T09:27:12;22.10;;;4.63;;
7773;SDS011;3931;42.260;23.116;2023-03-14T09:29:38;17.40;;;5.07;;
7773;SDS011;3931;42.260;23.116;2023-03-14T09:32:04;33.27;;;5.53;;
7773;SDS011;3931;42.260;23.116;2023-03-14T09:34:31;34.43;;;4.83;;
7773;SDS011;3931;42.260;23.116;2023-03-14T09:36:57;382.97;;;19.00;;
7773;SDS011;3931;42.260;23.116;2023-03-14T09:39:23;42.30;;;5.70;;
7773;SDS011;3931;42.260;23.116;2023-03-14T09:41:50;14.47;;;4.80;;
7773;SDS011;3931;42.260;23.116;2023-03-14T09:44:21;10.63;;;3.70;;
7773;SDS011;3931;42.260;23.116;2023-03-14T09:46:50;28.73;;;4.10;;
7773;SDS011;3931;42.260;23.116;2023-03-14T09:49:20;16.37;;;6.77;;
7773;SDS011;3931;42.260;23.116;2023-03-14T09:51:50;34.73;;;6.87;;
7773;SDS011;3931;42.260;23.116;2023-03-14T09:54:24;62.30;;;21.77;;
7773;SDS011;3931;42.260;23.116;2023-03-14T09:56:56;15.70;;;5.87;;
7773;SDS011;3931;42.260;23.116;2023-03-14T09:59:23;15.20;;;4.40;;
7773;SDS011;3931;42.260;23.116;2023-03-14T10:01:50;29.07;;;4.37;;
7773;SDS011;3931;42.260;23.116;2023-03-14T10:04:17;68.90;;;7.10;;
7773;SDS011;3931;42.260;23.116;2023-03-14T10:06:48;37.87;;;5.70;;
7773;SDS011;3931;42.260;23.116;2023-03-14T10:09:15;11.53;;;4.97;;
7773;SDS011;3931;42.260;23.116;2023-03-14T10:11:50;14.93;;;5.00;;
7773;SDS011;3931;42.260;23.116;2023-03-14T10:14:28;7.67;;;4.37;;
7773;SDS011;3931;42.260;23.116;2023-03-14T10:16:55;10.03;;;4.27;;
7773;SDS011;3931;42.260;23.116;2023-03-14T10:19:31;16.90;;;5.60;;
7773;SDS011;3931;42.260;23.116;2023-03-14T10:22:00;8.83;;;4.10;;
7773;SDS011;3931;42.260;23.116;2023-03-14T10:24:28;10.50;;;4.80;;
7773;SDS011;3931;42.260;23.116;2023-03-14T10:26:58;30.90;;;6.70;;
7773;SDS011;3931;42.260;23.116;2023-03-14T10:29:27;28.80;;;5.87;;
7773;SDS011;3931;42.260;23.116;2023-03-14T10:31:54;13.77;;;5.30;;
7773;SDS011;3931;42.260;23.116;2023-03-14T10:34:26;9.97;;;4.90;;
7773;SDS011;3931;42.260;23.116;2023-03-14T10:36:55;8.67;;;4.73;;
7773;SDS011;3931;42.260;23.116;2023-03-14T10:39:24;33.43;;;6.00;;
7773;SDS011;3931;42.260;23.116;2023-03-14T10:41:54;23.77;;;6.00;;
7773;SDS011;3931;42.260;23.116;2023-03-14T10:44:27;26.83;;;6.27;;
7773;SDS011;3931;42.260;23.116;2023-03-14T10:46:55;11.73;;;5.53;;
7773;SDS011;3931;42.260;23.116;2023-03-14T10:49:26;16.23;;;5.07;;
7773;SDS011;3931;42.260;23.116;2023-03-14T10:51:53;36.57;;;9.47;;
7773;SDS011;3931;42.260;23.116;2023-03-14T10:54:20;58.67;;;7.20;;
7773;SDS011;3931;42.260;23.116;2023-03-14T10:56:56;28.03;;;6.23;;
7773;SDS011;3931;42.260;23.116;2023-03-14T10:59:23;20.93;;;7.00;;
7773;SDS011;3931;42.260;23.116;2023-03-14T11:01:51;9.73;;;5.00;;
7773;SDS011;3931;42.260;23.116;2023-03-14T11:04:29;31.63;;;5.40;;
7773;SDS011;3931;42.260;23.116;2023-03-14T11:07:14;13.83;;;8.00;;
7773;SDS011;3931;42.260;23.116;2023-03-14T11:09:50;22.10;;;6.20;;
7773;SDS011;3931;42.260;23.116;2023-03-14T11:12:34;20.93;;;6.70;;
7773;SDS011;3931;42.260;23.116;2023-03-14T11:15:09;20.07;;;5.10;;
7773;SDS011;3931;42.260;23.116;2023-03-14T11:17:45;11.77;;;5.83;;
7773;SDS011;3931;42.260;23.116;2023-03-14T11:20:25;32.57;;;5.23;;
7773;SDS011;3931;42.260;23.116;2023-03-14T11:22:59;91.97;;;9.73;;
7773;SDS011;3931;42.260;23.116;2023-03-14T11:25:36;9.93;;;4.63;;
7773;SDS011;3931;42.260;23.116;2023-03-14T11:28:13;7.77;;;4.90;;
7773;SDS011;3931;42.260;23.116;2023-03-14T11:30:45;123.80;;;11.13;;
7773;SDS011;3931;42.260;23.116;2023-03-14T11:33:16;7.97;;;5.17;;
7773;SDS011;3931;42.260;23.116;2023-03-14T11:35:47;16.90;;;4.80;;
7773;SDS011;3931;42.260;23.116;2023-03-14T11:38:20;11.40;;;4.27;;
7773;SDS011;3931;42.260;23.116;2023-03-14T11:40:54;27.23;;;4.97;;
7773;SDS011;3931;42.260;23.116;2023-03-14T11:43:26;14.50;;;4.80;;
7773;SDS011;3931;42.260;23.116;2023-03-14T11:45:56;36.90;;;6.13;;
7773;SDS011;3931;42.260;23.116;2023-03-14T11:48:29;9.00;;;4.43;;
7773;SDS011;3931;42.260;23.116;2023-03-14T11:51:04;10.87;;;4.30;;
7773;SDS011;3931;42.260;23.116;2023-03-14T11:53:37;53.03;;;5.90;;
7773;SDS011;3931;42.260;23.116;2023-03-14T11:56:10;9.47;;;2.90;;
7773;SDS011;3931;42.260;23.116;2023-03-14T11:58:50;4.83;;;3.27;;
7773;SDS011;3931;42.260;23.116;2023-03-14T12:01:21;18.37;;;3.13;;
7773;SDS011;3931;42.260;23.116;2023-03-14T12:03:53;10.20;;;3.87;;
7773;SDS011;3931;42.260;23.116;2023-03-14T12:06:24;12.53;;;4.73;;
7773;SDS011;3931;42.260;23.116;2023-03-14T12:08:57;3.60;;;2.97;;
7773;SDS011;3931;42.260;23.116;2023-03-14T12:11:29;9.27;;;4.67;;
7773;SDS011;3931;42.260;23.116;2023-03-14T12:14:00;19.53;;;5.03;;
7773;SDS011;3931;42.260;23.116;2023-03-14T12:16:36;14.60;;;3.90;;
7773;SDS011;3931;42.260;23.116;2023-03-14T12:19:25;8.70;;;3.90;;
7773;SDS011;3931;42.260;23.116;2023-03-14T12:21:55;4.73;;;3.50;;
7773;SDS011;3931;42.260;23.116;2023-03-14T12:24:25;7.17;;;3.83;;
7773;SDS011;3931;42.260;23.116;2023-03-14T12:26:55;12.10;;;3.60;;
7773;SDS011;3931;42.260;23.116;2023-03-14T12:29:23;8.13;;;3.40;;
7773;SDS011;3931;42.260;23.116;2023-03-14T12:31:50;12.93;;;7.33;;
7773;SDS011;3931;42.260;23.116;2023-03-14T12:34:33;5.27;;;3.33;;
7773;SDS011;3931;42.260;23.116;2023-03-14T12:37:10;62.50;;;5.70;;
7773;SDS011;3931;42.260;23.116;2023-03-14T12:39:44;8.80;;;3.30;;
7773;SDS011;3931;42.260;23.116;2023-03-14T12:42:20;10.13;;;4.27;;
7773;SDS011;3931;42.260;23.116;2023-03-14T12:45:14;9.33;;;3.90;;
7773;SDS011;3931;42.260;23.116;2023-03-14T12:50:43;9.80;;;3.87;;
7773;SDS011;3931;42.260;23.116;2023-03-14T12:56:08;10.73;;;3.33;;
7773;SDS011;3931;42.260;23.116;2023-03-14T12:58:55;13.83;;;3.60;;
7773;SDS011;3931;42.260;23.116;2023-03-14T13:01:32;11.13;;;4.67;;
7773;SDS011;3931;42.260;23.116;2023-03-14T13:04:02;7.83;;;3.80;;
7773;SDS011;3931;42.260;23.116;2023-03-14T13:06:44;12.87;;;3.30;;
7773;SDS011;3931;42.260;23.116;2023-03-14T13:12:02;5.87;;;3.47;;
7773;SDS011;3931;42.260;23.116;2023-03-14T13:14:32;6.60;;;2.67;;
7773;SDS011;3931;42.260;23.116;2023-03-14T13:17:00;8.03;;;3.30;;
7773;SDS011;3931;42.260;23.116;2023-03-14T13:19:27;5.70;;;2.80;;
7773;SDS011;3931;42.260;23.116;2023-03-14T13:21:55;8.27;;;4.50;;
7773;SDS011;3931;42.260;23.116;2023-03-14T13:24:27;25.63;;;4.43;;
7773;SDS011;3931;42.260;23.116;2023-03-14T13:26:53;8.60;;;3.57;;
7773;SDS011;3931;42.260;23.116;2023-03-14T13:29:21;7.70;;;3.47;;
7773;SDS011;3931;42.260;23.116;2023-03-14T13:31:50;19.07;;;3.03;;
7773;SDS011;3931;42.260;23.116;2023-03-14T13:34:18;14.23;;;3.47;;
7773;SDS011;3931;42.260;23.116;2023-03-14T13:36:46;34.93;;;5.30;;
7773;SDS011;3931;42.260;23.116;2023-03-14T13:39:17;19.63;;;3.63;;
7773;SDS011;3931;42.260;23.116;2023-03-14T13:41:47;10.20;;;3.37;;
7773;SDS011;3931;42.260;23.116;2023-03-14T13:44:14;26.93;;;4.17;;
7773;SDS011;3931;42.260;23.116;2023-03-14T13:46:44;10.30;;;2.83;;
7773;SDS011;3931;42.260;23.116;2023-03-14T13:49:12;11.73;;;3.93;;
7773;SDS011;3931;42.260;23.116;2023-03-14T13:51:44;12.00;;;3.50;;
7773;SDS011;3931;42.260;23.116;2023-03-14T13:54:21;32.07;;;4.23;;
7773;SDS011;3931;42.260;23.116;2023-03-14T13:56:58;13.70;;;3.60;;
7773;SDS011;3931;42.260;23.116;2023-03-14T13:59:26;23.97;;;5.30;;
7773;SDS011;3931;42.260;23.116;2023-03-14T14:01:53;23.77;;;6.30;;
7773;SDS011;3931;42.260;23.116;2023-03-14T14:04:22;11.40;;;4.30;;
7773;SDS011;3931;42.260;23.116;2023-03-14T14:06:53;8.57;;;3.10;;
7773;SDS011;3931;42.260;23.116;2023-03-14T14:09:22;7.20;;;3.40;;
7773;SDS011;3931;42.260;23.116;2023-03-14T14:11:51;7.57;;;4.60;;
7773;SDS011;3931;42.260;23.116;2023-03-14T14:14:20;10.53;;;4.80;;
7773;SDS011;3931;42.260;23.116;2023-03-14T14:16:50;9.80;;;3.17;;
7773;SDS011;3931;42.260;23.116;2023-03-14T14:19:17;8.87;;;4.50;;
7773;SDS011;3931;42.260;23.116;2023-03-14T14:21:47;12.17;;;3.53;;
7773;SDS011;3931;42.260;23.116;2023-03-14T14:24:14;36.93;;;5.70;;
7773;SDS011;3931;42.260;23.116;2023-03-14T14:26:41;8.23;;;3.40;;
7773;SDS011;3931;42.260;23.116;2023-03-14T14:29:16;24.53;;;3.93;;
7773;SDS011;3931;42.260;23.116;2023-03-14T14:31:58;14.20;;;3.17;;
7773;SDS011;3931;42.260;23.116;2023-03-14T14:34:26;11.53;;;3.17;;
7773;SDS011;3931;42.260;23.116;2023-03-14T14:36:52;39.90;;;4.90;;
7773;SDS011;3931;42.260;23.116;2023-03-14T14:39:20;8.50;;;3.63;;
7773;SDS011;3931;42.260;23.116;2023-03-14T14:41:49;61.47;;;5.07;;
7773;SDS011;3931;42.260;23.116;2023-03-14T14:44:18;24.40;;;3.20;;
7773;SDS011;3931;42.260;23.116;2023-03-14T14:46:54;42.13;;;5.10;;
7773;SDS011;3931;42.260;23.116;2023-03-14T14:49:22;12.00;;;3.97;;
7773;SDS011;3931;42.260;23.116;2023-03-14T14:52:00;27.13;;;4.40;;
7773;SDS011;3931;42.260;23.116;2023-03-14T14:54:33;21.17;;;5.00;;
7773;SDS011;3931;42.260;23.116;2023-03-14T14:57:03;19.00;;;4.60;;
7773;SDS011;3931;42.260;23.116;2023-03-14T14:59:31;59.17;;;6.87;;
7773;SDS011;3931;42.260;23.116;2023-03-14T15:01:59;37.77;;;5.00;;